createdAt,value
2022-09-30T00:01:50.988Z,10.87
2022-09-30T00:04:23.337Z,10.60
2022-09-30T00:06:53.564Z,10.30
2022-09-30T00:09:22.952Z,10.47
2022-09-30T00:11:51.968Z,11.23
2022-09-30T00:14:24.456Z,10.70
2022-09-30T00:16:53.055Z,10.80
2022-09-30T00:19:21.591Z,10.90
2022-09-30T00:21:50.183Z,10.57
2022-09-30T00:24:18.808Z,11.80
2022-09-30T00:26:47.334Z,10.47
2022-09-30T00:29:15.901Z,10.97
2022-09-30T00:31:45.959Z,10.77
2022-09-30T00:34:14.593Z,11.30
2022-09-30T00:36:45.629Z,10.40
2022-09-30T00:39:16.836Z,10.47
2022-09-30T00:41:47.472Z,10.50
2022-09-30T00:44:52.851Z,10.70
2022-09-30T00:47:40.128Z,10.93
2022-09-30T00:50:29.493Z,10.80
2022-09-30T00:53:13.552Z,10.67
2022-09-30T00:55:56.764Z,10.97
2022-09-30T00:58:31.509Z,10.30
2022-09-30T01:01:02.822Z,10.23
2022-09-30T01:03:36.775Z,10.50
2022-09-30T01:06:06.438Z,15.43
2022-09-30T01:08:39.697Z,11.10
2022-09-30T01:11:08.595Z,11.20
2022-09-30T01:13:38.659Z,11.17
2022-09-30T01:16:30.970Z,10.70
2022-09-30T01:19:22.681Z,10.57
2022-09-30T01:22:17.560Z,11.17
2022-09-30T01:25:12.678Z,11.00
2022-09-30T01:28:27.516Z,10.40
2022-09-30T01:31:09.323Z,11.30
2022-09-30T01:33:48.470Z,10.50
2022-09-30T01:36:40.961Z,10.97
2022-09-30T01:39:26.743Z,10.90
2022-09-30T01:42:10.125Z,11.10
2022-09-30T01:44:49.756Z,10.80
2022-09-30T01:47:26.499Z,10.63
2022-09-30T01:50:02.077Z,10.47
2022-09-30T01:52:40.219Z,10.33
2022-09-30T01:55:15.364Z,10.93
2022-09-30T01:57:50.481Z,10.70
2022-09-30T02:00:19.929Z,10.60
2022-09-30T02:02:55.307Z,10.90
2022-09-30T02:05:30.718Z,10.83
2022-09-30T02:08:05.544Z,11.20
2022-09-30T02:10:39.022Z,10.50
2022-09-30T02:13:13.953Z,10.53
2022-09-30T02:15:48.416Z,10.10
2022-09-30T02:18:23.146Z,10.40
2022-09-30T02:20:59.251Z,10.60
2022-09-30T02:23:30.637Z,10.50
2022-09-30T02:26:06.058Z,11.10
2022-09-30T02:28:40.031Z,10.60
2022-09-30T02:31:13.320Z,10.80
2022-09-30T02:33:48.219Z,10.53
2022-09-30T02:36:23.383Z,14.30
2022-09-30T02:39:01.729Z,14.70
2022-09-30T02:41:35.859Z,11.40
2022-09-30T02:44:04.765Z,10.70
2022-09-30T02:46:44.890Z,10.50
2022-09-30T02:49:22.891Z,10.67
2022-09-30T02:52:08.164Z,10.80
2022-09-30T02:54:46.031Z,11.00
2022-09-30T02:57:20.769Z,11.17
2022-09-30T02:59:52.816Z,10.60
2022-09-30T03:02:22.307Z,10.90
2022-09-30T03:04:52.701Z,10.70
2022-09-30T03:07:21.379Z,10.40
2022-09-30T03:09:49.953Z,10.70
2022-09-30T03:12:38.029Z,11.13
2022-09-30T03:15:32.252Z,10.33
2022-09-30T03:18:22.698Z,10.53
2022-09-30T03:21:09.868Z,11.00
2022-09-30T03:24:07.215Z,10.37
2022-09-30T03:26:41.913Z,10.87
2022-09-30T03:29:20.417Z,11.07
2022-09-30T03:32:05.665Z,10.33
2022-09-30T03:35:05.906Z,10.50
2022-09-30T03:37:47.690Z,11.37
2022-09-30T03:40:25.013Z,11.00
2022-09-30T03:43:01.638Z,11.73
2022-09-30T03:45:36.830Z,11.00
2022-09-30T03:48:09.227Z,10.70
2022-09-30T03:50:38.717Z,11.03
2022-09-30T03:53:13.928Z,11.53
2022-09-30T03:55:49.012Z,11.07
2022-09-30T03:58:19.038Z,11.30
2022-09-30T04:00:50.879Z,11.17
2022-09-30T04:03:20.786Z,11.03
2022-09-30T04:05:50.162Z,10.90
2022-09-30T04:08:20.165Z,11.20
2022-09-30T04:10:48.675Z,10.10
2022-09-30T04:13:17.272Z,10.50
2022-09-30T04:15:46.399Z,10.93
2022-09-30T04:18:14.964Z,11.07
2022-09-30T04:20:43.488Z,11.13
2022-09-30T04:23:12.031Z,10.63
2022-09-30T04:25:41.988Z,11.80
2022-09-30T04:28:10.541Z,11.23
2022-09-30T04:30:39.538Z,10.60
2022-09-30T04:33:08.092Z,11.10
2022-09-30T04:35:39.240Z,11.23
2022-09-30T04:38:08.041Z,10.83
2022-09-30T04:40:39.095Z,10.70
2022-09-30T04:43:09.360Z,10.93
2022-09-30T04:45:39.279Z,11.30
2022-09-30T04:48:08.008Z,11.10
2022-09-30T04:50:36.488Z,10.70
2022-09-30T04:53:05.038Z,10.57
2022-09-30T04:55:33.640Z,11.27
2022-09-30T04:58:02.221Z,11.70
2022-09-30T05:00:32.185Z,11.40
2022-09-30T05:03:00.802Z,11.27
2022-09-30T05:05:29.292Z,10.90
2022-09-30T05:08:02.537Z,11.20
2022-09-30T05:10:32.035Z,11.17
2022-09-30T05:13:00.825Z,11.43
2022-09-30T05:15:29.407Z,11.03
2022-09-30T05:17:59.361Z,11.00
2022-09-30T05:20:27.970Z,11.17
2022-09-30T05:22:57.477Z,11.03
2022-09-30T05:25:26.076Z,11.43
2022-09-30T05:27:54.624Z,11.90
2022-09-30T05:30:23.104Z,11.60
2022-09-30T05:32:51.929Z,11.30
2022-09-30T05:35:21.823Z,11.10
2022-09-30T05:37:50.336Z,10.80
2022-09-30T05:40:19.083Z,11.17
2022-09-30T05:42:48.210Z,11.87
2022-09-30T05:45:16.899Z,12.97
2022-09-30T05:47:45.537Z,10.87
2022-09-30T05:50:14.024Z,10.50
2022-09-30T05:52:43.896Z,11.47
2022-09-30T05:55:12.436Z,10.83
2022-09-30T05:57:41.012Z,10.43
2022-09-30T06:00:11.207Z,11.47
2022-09-30T06:02:43.008Z,10.73
2022-09-30T06:05:13.367Z,11.27
2022-09-30T06:07:43.635Z,10.93
2022-09-30T06:10:12.463Z,10.93
2022-09-30T06:12:41.168Z,10.70
2022-09-30T06:15:11.076Z,10.97
2022-09-30T06:17:42.503Z,11.60
2022-09-30T06:20:11.763Z,10.60
2022-09-30T06:22:40.283Z,11.17
2022-09-30T06:25:11.294Z,11.53
2022-09-30T06:27:40.018Z,11.00
2022-09-30T06:30:10.630Z,11.77
2022-09-30T06:32:39.331Z,11.10
2022-09-30T06:35:08.849Z,11.60
2022-09-30T06:37:38.029Z,11.00
2022-09-30T06:40:09.935Z,11.07
2022-09-30T06:42:38.520Z,11.33
2022-09-30T06:45:09.241Z,11.10
2022-09-30T06:47:39.241Z,11.23
2022-09-30T06:50:20.068Z,10.87
2022-09-30T06:52:52.327Z,11.20
2022-09-30T06:55:24.363Z,10.67
2022-09-30T06:57:52.990Z,10.50
2022-09-30T07:00:21.779Z,10.80
2022-09-30T07:02:50.437Z,10.67
2022-09-30T07:05:19.887Z,11.30
2022-09-30T07:07:49.237Z,10.80
2022-09-30T07:10:17.963Z,10.97
2022-09-30T07:12:52.067Z,11.27
2022-09-30T07:15:22.964Z,10.93
2022-09-30T07:17:56.679Z,12.60
2022-09-30T07:20:25.491Z,11.20
2022-09-30T07:22:54.124Z,11.20
2022-09-30T07:25:22.631Z,11.20
2022-09-30T07:27:53.040Z,11.10
2022-09-30T07:30:27.436Z,10.80
2022-09-30T07:32:56.236Z,11.20
2022-09-30T07:35:24.783Z,10.83
2022-09-30T07:37:53.305Z,11.50
2022-09-30T07:40:21.866Z,11.60
2022-09-30T07:42:51.882Z,11.63
2022-09-30T07:45:21.011Z,14.20
2022-09-30T07:47:53.527Z,10.77
2022-09-30T07:50:22.563Z,11.07
2022-09-30T07:52:51.091Z,11.20
2022-09-30T07:55:19.629Z,10.70
2022-09-30T07:57:48.205Z,10.30
2022-09-30T08:00:41.033Z,10.63
2022-09-30T08:03:06.753Z,11.03
2022-09-30T08:05:40.877Z,10.77
2022-09-30T08:08:09.466Z,10.33
2022-09-30T08:10:38.000Z,10.53
2022-09-30T08:13:06.678Z,10.50
2022-09-30T08:15:36.990Z,10.40
2022-09-30T08:18:05.744Z,10.53
2022-09-30T08:20:34.622Z,10.97
2022-09-30T08:23:04.363Z,10.93
2022-09-30T08:25:32.902Z,10.60
2022-09-30T08:28:01.648Z,10.67
2022-09-30T08:30:30.425Z,10.47
2022-09-30T08:33:00.967Z,10.90
2022-09-30T08:35:29.659Z,10.17
2022-09-30T08:37:58.312Z,10.37
2022-09-30T08:40:30.346Z,10.00
2022-09-30T08:43:14.321Z,11.00
2022-09-30T08:45:53.976Z,10.00
2022-09-30T08:48:40.359Z,10.50
2022-09-30T08:51:30.594Z,10.10
2022-09-30T08:54:04.520Z,10.50
2022-09-30T08:56:34.773Z,10.30
2022-09-30T08:59:09.882Z,10.30
2022-09-30T09:01:43.945Z,10.50
2022-09-30T09:04:15.173Z,12.90
2022-09-30T09:06:55.696Z,10.37
2022-09-30T09:09:49.002Z,10.63
2022-09-30T09:12:31.130Z,10.17
2022-09-30T09:15:26.524Z,10.17
2022-09-30T09:18:38.628Z,10.40
2022-09-30T09:21:22.378Z,10.10
2022-09-30T09:23:52.979Z,10.40
2022-09-30T09:26:21.583Z,10.20
2022-09-30T09:29:07.841Z,10.60
2022-09-30T09:31:36.727Z,9.80
2022-09-30T09:34:12.148Z,9.80
2022-09-30T09:37:06.204Z,9.90
2022-09-30T09:40:13.321Z,9.70
2022-09-30T09:43:00.836Z,13.73
2022-09-30T09:45:37.926Z,9.77
2022-09-30T09:48:12.323Z,9.50
2022-09-30T09:50:54.502Z,10.20
2022-09-30T09:53:41.534Z,9.83
2022-09-30T09:56:19.478Z,9.33
2022-09-30T09:59:13.399Z,9.33
2022-09-30T10:01:44.691Z,9.50
2022-09-30T10:04:19.292Z,9.50
2022-09-30T10:06:52.915Z,12.33
2022-09-30T10:09:34.962Z,9.40
2022-09-30T10:12:29.593Z,9.30
2022-09-30T10:15:05.290Z,9.70
2022-09-30T10:17:36.058Z,9.40
2022-09-30T10:20:18.071Z,9.33
2022-09-30T10:22:46.668Z,9.20
2022-09-30T10:25:24.952Z,9.20
2022-09-30T10:28:00.490Z,9.00
2022-09-30T10:30:39.784Z,9.30
2022-09-30T10:33:17.852Z,9.00
2022-09-30T10:36:02.414Z,9.00
2022-09-30T10:38:32.263Z,9.10
2022-09-30T10:41:03.747Z,9.10
2022-09-30T10:43:45.444Z,9.00
2022-09-30T10:46:27.221Z,9.10
2022-09-30T10:48:58.978Z,9.10
2022-09-30T10:51:34.085Z,9.10
2022-09-30T10:54:03.629Z,8.70
2022-09-30T10:56:41.823Z,8.70
2022-09-30T10:59:33.918Z,8.70
2022-09-30T11:02:17.530Z,8.90
2022-09-30T11:04:51.901Z,9.00
2022-09-30T11:07:29.776Z,8.63
2022-09-30T11:10:06.166Z,8.70
2022-09-30T11:12:45.282Z,8.70
2022-09-30T11:15:21.520Z,11.53
2022-09-30T11:17:58.990Z,8.97
2022-09-30T11:20:32.618Z,9.17
2022-09-30T11:23:07.071Z,8.93
2022-09-30T11:25:44.913Z,9.00
2022-09-30T11:28:44.409Z,8.60
2022-09-30T11:31:25.356Z,8.80
2022-09-30T11:34:15.960Z,8.53
2022-09-30T11:36:52.519Z,8.70
2022-09-30T11:39:52.396Z,9.10
2022-09-30T11:42:31.197Z,8.40
2022-09-30T11:45:10.931Z,8.70
2022-09-30T11:47:59.092Z,8.60
2022-09-30T11:50:50.847Z,8.47
2022-09-30T11:53:31.629Z,8.77
2022-09-30T11:56:36.820Z,8.83
2022-09-30T11:59:16.204Z,8.77
2022-09-30T12:01:50.023Z,8.73
2022-09-30T12:04:23.883Z,8.60
2022-09-30T12:06:58.625Z,8.50
2022-09-30T12:09:32.790Z,8.90
2022-09-30T12:12:08.588Z,8.97
2022-09-30T12:14:45.115Z,9.43
2022-09-30T12:17:34.260Z,8.80
2022-09-30T12:20:12.201Z,8.60
2022-09-30T12:22:45.856Z,9.10
2022-09-30T12:25:19.845Z,8.70
2022-09-30T12:27:54.630Z,9.00
2022-09-30T12:30:23.979Z,8.70
2022-09-30T12:33:30.941Z,8.63
2022-09-30T12:36:41.126Z,8.73
2022-09-30T12:39:54.803Z,8.80
2022-09-30T12:43:09.984Z,8.60
2022-09-30T12:46:09.627Z,8.60
2022-09-30T12:48:44.068Z,8.83
2022-09-30T12:51:27.756Z,8.60
2022-09-30T12:54:04.591Z,8.80
2022-09-30T12:56:37.661Z,8.90
2022-09-30T12:59:06.292Z,8.70
2022-09-30T13:01:39.389Z,8.70
2022-09-30T13:04:33.230Z,8.80
2022-09-30T13:07:20.249Z,8.70
2022-09-30T13:10:28.350Z,8.70
2022-09-30T13:13:24.726Z,8.80
2022-09-30T13:15:54.321Z,8.50
2022-09-30T13:19:00.682Z,8.97
2022-09-30T13:21:32.207Z,8.77
2022-09-30T13:24:01.862Z,8.93
2022-09-30T13:26:42.165Z,8.60
2022-09-30T13:29:39.752Z,8.60
2022-09-30T13:32:12.073Z,9.00
2022-09-30T13:35:00.687Z,8.80
2022-09-30T13:37:40.697Z,8.80
2022-09-30T13:40:32.901Z,8.80
2022-09-30T13:43:17.812Z,8.70
2022-09-30T13:45:49.183Z,8.70
2022-09-30T13:48:20.529Z,8.90
2022-09-30T13:50:51.424Z,9.00
2022-09-30T13:53:33.114Z,9.10
2022-09-30T13:56:06.977Z,9.00
2022-09-30T13:59:10.043Z,9.10
2022-09-30T14:02:09.652Z,9.20
2022-09-30T14:05:05.781Z,9.20
2022-09-30T14:07:47.833Z,8.93
2022-09-30T14:10:43.316Z,9.00
2022-09-30T14:13:32.321Z,8.70
2022-09-30T14:16:39.296Z,9.07
2022-09-30T14:19:26.391Z,8.83
2022-09-30T14:21:58.071Z,9.10
2022-09-30T14:24:28.579Z,9.10
2022-09-30T14:27:23.248Z,9.03
2022-09-30T14:30:05.018Z,9.10
2022-09-30T14:32:39.544Z,9.73
2022-09-30T14:35:10.387Z,9.10
2022-09-30T14:37:47.885Z,9.20
2022-09-30T14:40:20.841Z,9.17
2022-09-30T14:42:50.994Z,9.23
2022-09-30T14:45:26.953Z,9.20
2022-09-30T14:47:59.752Z,9.10
2022-09-30T14:50:32.419Z,9.20
2022-09-30T14:53:03.282Z,9.40
2022-09-30T14:55:34.477Z,9.47
2022-09-30T14:58:28.723Z,9.10
2022-09-30T15:01:08.070Z,9.10
2022-09-30T15:03:39.738Z,9.20
2022-09-30T15:06:20.064Z,9.37
2022-09-30T15:08:50.161Z,9.30
2022-09-30T15:11:21.404Z,9.10
2022-09-30T15:13:59.008Z,9.30
2022-09-30T15:16:30.727Z,9.20
2022-09-30T15:19:00.689Z,9.20
2022-09-30T15:21:32.786Z,9.07
2022-09-30T15:24:02.901Z,9.43
2022-09-30T15:26:34.006Z,9.50
2022-09-30T15:29:07.137Z,9.20
2022-09-30T15:31:36.308Z,9.10
2022-09-30T15:34:08.938Z,9.40
2022-09-30T15:36:38.962Z,9.10
2022-09-30T15:39:19.795Z,9.73
2022-09-30T15:41:48.836Z,9.77
2022-09-30T15:44:38.034Z,9.60
2022-09-30T15:47:09.997Z,11.80
2022-09-30T15:49:49.863Z,26.53
2022-09-30T15:52:29.501Z,24.10
2022-09-30T15:54:59.188Z,37.67
2022-09-30T15:57:46.952Z,32.23
2022-09-30T16:00:39.602Z,24.37
2022-09-30T16:03:29.025Z,18.57
2022-09-30T16:06:08.420Z,16.93
2022-09-30T16:08:45.164Z,11.60
2022-09-30T16:11:21.980Z,12.20
2022-09-30T16:13:52.405Z,10.73
2022-09-30T16:16:26.430Z,10.10
2022-09-30T16:18:57.196Z,9.90
2022-09-30T16:21:45.351Z,9.50
2022-09-30T16:24:45.060Z,9.80
2022-09-30T16:27:31.401Z,9.23
2022-09-30T16:30:01.620Z,9.43
2022-09-30T16:32:36.967Z,9.40
2022-09-30T16:35:07.356Z,9.47
2022-09-30T16:37:36.289Z,9.53
2022-09-30T16:40:23.114Z,12.70
2022-09-30T16:42:53.388Z,9.50
2022-09-30T16:45:22.509Z,9.40
2022-09-30T16:47:52.392Z,9.70
2022-09-30T16:50:33.845Z,9.90
2022-09-30T16:53:02.372Z,9.50
2022-09-30T16:55:31.697Z,9.50
2022-09-30T16:58:00.918Z,9.57
2022-09-30T17:00:30.214Z,9.63
2022-09-30T17:03:00.516Z,10.13
2022-09-30T17:05:29.012Z,9.77
2022-09-30T17:08:00.118Z,9.50
2022-09-30T17:10:32.028Z,10.10
2022-09-30T17:13:03.222Z,9.40
2022-09-30T17:15:36.686Z,9.60
2022-09-30T17:18:09.651Z,9.70
2022-09-30T17:20:39.098Z,9.77
2022-09-30T17:23:07.780Z,9.50
2022-09-30T17:25:41.647Z,9.80
2022-09-30T17:28:32.226Z,9.93
2022-09-30T17:31:00.837Z,10.10
2022-09-30T17:33:33.944Z,10.10
2022-09-30T17:36:06.067Z,9.67
2022-09-30T17:38:35.839Z,9.93
2022-09-30T17:41:22.598Z,10.40
2022-09-30T17:43:51.199Z,11.10
2022-09-30T17:46:23.438Z,10.60
2022-09-30T17:48:57.488Z,10.80
2022-09-30T17:51:26.105Z,10.70
2022-09-30T17:53:57.031Z,10.90
2022-09-30T17:56:25.544Z,10.70
2022-09-30T17:58:54.041Z,11.13
2022-09-30T18:01:23.163Z,10.50
2022-09-30T18:03:53.627Z,10.00
2022-09-30T18:06:22.469Z,10.23
2022-09-30T18:08:51.540Z,10.30
2022-09-30T18:11:24.414Z,10.27
2022-09-30T18:13:57.752Z,10.30
2022-09-30T18:16:30.307Z,10.70
2022-09-30T18:19:03.627Z,11.30
2022-09-30T18:21:33.298Z,10.67
2022-09-30T18:24:03.188Z,11.10
2022-09-30T18:26:35.657Z,11.67
2022-09-30T18:29:06.237Z,11.13
2022-09-30T18:31:37.648Z,10.60
2022-09-30T18:34:08.720Z,11.20
2022-09-30T18:36:37.377Z,10.90
2022-09-30T18:39:06.410Z,11.20
2022-09-30T18:41:37.359Z,10.90
2022-09-30T18:44:07.336Z,10.60
2022-09-30T18:46:36.095Z,10.27
2022-09-30T18:49:05.750Z,10.30
2022-09-30T18:51:36.096Z,10.30
2022-09-30T18:54:05.910Z,10.20
2022-09-30T18:56:34.907Z,10.30
2022-09-30T18:59:05.716Z,10.53
2022-09-30T19:01:35.016Z,10.40
2022-09-30T19:04:04.799Z,10.70
2022-09-30T19:06:33.357Z,10.43
2022-09-30T19:09:03.526Z,10.07
2022-09-30T19:11:32.543Z,10.20
2022-09-30T19:14:03.184Z,10.47
2022-09-30T19:16:37.965Z,10.40
2022-09-30T19:19:10.345Z,11.13
2022-09-30T19:21:40.454Z,10.40
2022-09-30T19:24:10.771Z,11.10
2022-09-30T19:26:40.505Z,10.63
2022-09-30T19:29:10.608Z,11.17
2022-09-30T19:31:39.380Z,11.20
2022-09-30T19:34:13.508Z,11.10
2022-09-30T19:36:51.740Z,12.00
2022-09-30T19:39:22.682Z,11.50
2022-09-30T19:41:51.819Z,11.00
2022-09-30T19:44:20.346Z,11.47
2022-09-30T19:46:50.505Z,10.97
2022-09-30T19:49:21.694Z,11.13
2022-09-30T19:51:52.649Z,11.50
2022-09-30T19:54:36.832Z,11.20
2022-09-30T19:57:08.558Z,11.37
2022-09-30T19:59:37.140Z,11.57
2022-09-30T20:02:05.763Z,10.80
2022-09-30T20:04:35.311Z,11.23
2022-09-30T20:07:04.347Z,11.70
2022-09-30T20:09:34.215Z,10.63
2022-09-30T20:12:02.983Z,10.60
2022-09-30T20:14:48.900Z,10.67
2022-09-30T20:17:17.789Z,10.50
2022-09-30T20:20:06.450Z,11.20
2022-09-30T20:22:35.010Z,10.83
2022-09-30T20:25:05.692Z,11.33
2022-09-30T20:27:34.221Z,10.93
2022-09-30T20:30:02.776Z,11.23
2022-09-30T20:32:31.352Z,11.00
2022-09-30T20:34:59.869Z,10.70
2022-09-30T20:37:29.462Z,11.40
2022-09-30T20:39:58.063Z,11.23
2022-09-30T20:42:31.262Z,10.73
2022-09-30T20:45:03.108Z,10.60
2022-09-30T20:47:31.653Z,10.50
2022-09-30T20:50:00.237Z,10.67
2022-09-30T20:52:29.751Z,10.53
2022-09-30T20:54:58.359Z,11.03
2022-09-30T20:57:30.218Z,10.73
2022-09-30T20:59:59.978Z,11.20
2022-09-30T21:02:29.425Z,10.97
2022-09-30T21:04:59.616Z,10.90
2022-09-30T21:07:28.474Z,11.07
2022-09-30T21:09:57.432Z,11.20
2022-09-30T21:12:30.342Z,11.60
2022-09-30T21:15:01.265Z,10.27
2022-09-30T21:17:30.383Z,11.27
2022-09-30T21:19:58.945Z,11.20
2022-09-30T21:22:27.504Z,10.60
2022-09-30T21:24:56.052Z,10.80
2022-09-30T21:27:24.730Z,10.97
2022-09-30T21:29:54.618Z,11.10
2022-09-30T21:32:23.128Z,14.40
2022-09-30T21:34:53.034Z,10.87
2022-09-30T21:37:21.968Z,11.07
2022-09-30T21:40:10.113Z,10.73
2022-09-30T21:42:39.512Z,11.17
2022-09-30T21:45:11.231Z,11.03
2022-09-30T21:47:40.816Z,11.40
2022-09-30T21:50:10.842Z,11.13
2022-09-30T21:52:39.568Z,11.13
2022-09-30T21:55:09.008Z,11.40
2022-09-30T21:57:37.593Z,11.83
2022-09-30T22:00:08.744Z,12.00
2022-09-30T22:02:42.462Z,11.73
2022-09-30T22:05:11.149Z,11.27
2022-09-30T22:07:39.996Z,11.40
2022-09-30T22:10:10.034Z,11.30
2022-09-30T22:12:38.781Z,11.20
2022-09-30T22:15:10.338Z,11.60
2022-09-30T22:17:38.910Z,11.40
2022-09-30T22:20:09.588Z,11.47
2022-09-30T22:22:38.248Z,11.23
2022-09-30T22:25:08.679Z,11.37
2022-09-30T22:27:37.214Z,11.03
2022-09-30T22:30:10.123Z,10.40
2022-09-30T22:32:38.736Z,10.87
2022-09-30T22:35:26.452Z,11.60
2022-09-30T22:38:12.524Z,10.60
2022-09-30T22:40:41.044Z,11.10
2022-09-30T22:43:09.616Z,11.10
2022-09-30T22:45:39.519Z,11.43
2022-09-30T22:48:08.039Z,11.60
2022-09-30T22:50:37.179Z,11.50
2022-09-30T22:53:05.687Z,11.53
2022-09-30T22:55:35.242Z,10.97
2022-09-30T22:58:03.857Z,11.20
2022-09-30T23:00:32.653Z,10.40
2022-09-30T23:03:03.617Z,11.00
2022-09-30T23:05:32.228Z,11.17
2022-09-30T23:08:00.789Z,11.50
2022-09-30T23:10:29.427Z,12.20
2022-09-30T23:12:58.417Z,11.30
2022-09-30T23:15:27.001Z,11.13
2022-09-30T23:17:55.523Z,11.17
2022-09-30T23:20:25.523Z,10.77
2022-09-30T23:22:54.035Z,11.70
2022-09-30T23:25:22.533Z,11.37
2022-09-30T23:27:51.225Z,11.57
2022-09-30T23:30:19.962Z,11.80
2022-09-30T23:32:48.502Z,11.60
2022-09-30T23:35:17.198Z,11.23
2022-09-30T23:37:47.461Z,11.47
2022-09-30T23:40:16.086Z,11.97
2022-09-30T23:42:44.644Z,12.00
2022-09-30T23:45:13.185Z,11.57
2022-09-30T23:47:41.691Z,11.10
2022-09-30T23:50:11.734Z,11.37
2022-09-30T23:52:40.249Z,11.80
2022-09-30T23:55:11.603Z,11.53
2022-09-30T23:57:40.216Z,11.50
